Time;durP1;ratioP1;P1;durP2;ratioP2;P2;SDS_P1;SDS_P2;PMS_P1;PMS_P2;Temp;Humidity;BMP_temperature;BMP_pressure;BME280_temperature;BME280_humidity;BME280_pressure;Samples;Min_cycle;Max_cycle;Signal;HPM_P1;HPM_P2
2023/09/22 00:00:10;;;;;;;0.60;0.43;;;16.40;99.90;;;16.59;100.00;99384.91;5233408;28;20056;-51
2023/09/22 00:02:44;;;;;;;1.00;0.85;;;16.40;99.90;;;16.58;100.00;99383.19;5221288;28;20029;-52
2023/09/22 00:05:17;;;;;;;0.95;0.55;;;16.30;99.90;;;16.55;100.00;99377.03;5232960;28;20044;-51
2023/09/22 00:07:49;;;;;;;0.60;0.43;;;16.40;99.90;;;16.54;100.00;99393.72;5224410;28;20048;-52
2023/09/22 00:10:22;;;;;;;1.10;0.43;;;16.30;99.90;;;16.53;100.00;99381.44;5233451;28;20057;-52
2023/09/22 00:12:56;;;;;;;0.93;0.47;;;16.30;99.90;;;16.52;100.00;99390.25;5223028;28;20060;-52
2023/09/22 00:15:32;;;;;;;0.77;0.60;;;16.30;99.90;;;16.50;100.00;99397.28;5232726;28;20056;-51
2023/09/22 00:18:05;;;;;;;0.52;0.50;;;16.30;99.90;;;16.48;100.00;99387.66;5231483;28;20123;-51
2023/09/22 00:20:38;;;;;;;0.68;0.50;;;16.20;99.90;;;16.47;100.00;99397.31;5238838;28;20064;-51
2023/09/22 00:23:11;;;;;;;1.73;0.60;;;16.30;99.90;;;16.46;100.00;99390.31;5227647;28;20091;-51
2023/09/22 00:25:43;;;;;;;1.08;0.70;;;16.20;99.90;;;16.44;100.00;99392.09;5221844;28;20041;-52
2023/09/22 00:28:17;;;;;;;0.60;0.50;;;16.20;99.90;;;16.42;100.00;99387.72;5233512;28;20056;-51
2023/09/22 00:30:49;;;;;;;0.60;0.52;;;16.20;99.90;;;16.40;100.00;99393.00;5223413;28;20053;-51
2023/09/22 00:33:25;;;;;;;0.32;0.32;;;16.20;99.90;;;16.40;100.00;99400.03;5233145;28;20136;-52
2023/09/22 00:36:02;;;;;;;0.93;0.60;;;16.10;99.90;;;16.38;100.00;99393.91;5221428;28;20045;-51
2023/09/22 00:38:35;;;;;;;1.17;0.47;;;16.10;99.90;;;16.37;100.00;99400.94;5232179;28;20459;-51
2023/09/22 00:41:07;;;;;;;0.52;0.40;;;16.10;99.90;;;16.36;100.00;99398.31;5233302;28;20048;-52
2023/09/22 00:43:41;;;;;;;0.73;0.52;;;16.20;99.90;;;16.35;100.00;99401.81;5233414;28;20049;-51
2023/09/22 00:46:13;;;;;;;0.77;0.47;;;16.10;99.90;;;16.32;100.00;99396.63;5233912;28;20048;-50
2023/09/22 00:48:46;;;;;;;0.60;0.40;;;16.10;99.90;;;16.29;100.00;99408.00;5223421;28;20037;-52
2023/09/22 00:51:21;;;;;;;0.65;0.50;;;16.00;99.90;;;16.25;100.00;99414.22;5233225;28;20053;-52
2023/09/22 00:53:55;;;;;;;0.50;0.50;;;16.10;99.90;;;16.22;100.00;99417.72;5222193;28;20052;-52
2023/09/22 00:56:29;;;;;;;0.52;0.52;;;16.00;99.90;;;16.19;100.00;99417.78;5233466;28;20555;-51
2023/09/22 00:59:03;;;;;;;0.47;0.47;;;16.00;99.90;;;16.17;100.00;99418.66;5239482;28;20052;-51
2023/09/22 01:01:38;;;;;;;0.70;0.57;;;15.90;99.90;;;16.15;100.00;99426.56;5237805;28;20048;-50
2023/09/22 01:04:11;;;;;;;0.57;0.57;;;15.90;99.90;;;16.11;100.00;99414.34;5221605;28;20049;-51
2023/09/22 01:06:45;;;;;;;0.75;0.60;;;15.90;99.90;;;16.08;100.00;99424.00;5236805;28;20041;-50
2023/09/22 01:09:17;;;;;;;1.00;0.50;;;15.90;99.90;;;16.04;100.00;99422.28;5232912;28;20059;-52
2023/09/22 01:11:49;;;;;;;1.00;0.70;;;15.80;99.90;;;16.00;100.00;99424.94;5219931;28;20041;-50
2023/09/22 01:14:23;;;;;;;0.75;0.57;;;15.80;99.90;;;15.99;100.00;99420.59;5221071;28;20067;-51
2023/09/22 01:16:55;;;;;;;0.50;0.50;;;15.80;99.90;;;15.96;100.00;99417.09;5230107;28;20064;-51
2023/09/22 01:19:28;;;;;;;1.38;0.80;;;15.70;99.90;;;15.94;100.00;99426.75;5233125;28;20056;-52
2023/09/22 01:22:02;;;;;;;1.23;0.45;;;15.70;99.90;;;15.92;100.00;99429.41;5232900;28;20051;-52
2023/09/22 01:24:34;;;;;;;1.17;0.43;;;15.70;99.90;;;15.90;100.00;99436.41;5232379;28;20053;-51
2023/09/22 01:27:07;;;;;;;2.25;0.65;;;15.70;99.90;;;15.87;100.00;99446.09;5233764;28;20041;-51
2023/09/22 01:29:40;;;;;;;0.50;0.50;;;15.60;99.90;;;15.83;100.00;99445.22;5232781;28;20044;-51
2023/09/22 01:32:12;;;;;;;1.35;0.50;;;15.60;99.90;;;15.77;100.00;99434.78;5233783;28;20045;-52
2023/09/22 01:34:45;;;;;;;0.77;0.77;;;15.60;99.90;;;15.73;100.00;99430.44;5224684;28;20049;-51
2023/09/22 01:37:21;;;;;;;1.13;0.77;;;15.50;99.90;;;15.70;100.00;99433.94;5233927;28;20381;-51
2023/09/22 01:39:55;;;;;;;0.60;0.45;;;15.50;99.90;;;15.67;100.00;99425.22;5222446;28;20057;-51
2023/09/22 01:42:27;;;;;;;0.45;0.35;;;15.50;99.90;;;15.64;100.00;99427.88;5221644;28;20044;-52
2023/09/22 01:44:59;;;;;;;0.70;0.70;;;15.40;99.90;;;15.61;100.00;99433.13;5234521;28;20045;-51
2023/09/22 01:47:32;;;;;;;0.60;0.50;;;15.40;99.90;;;15.59;100.00;99434.91;5235483;28;20056;-51
2023/09/22 01:50:07;;;;;;;1.17;0.60;;;15.40;99.90;;;15.57;100.00;99431.38;5228802;28;20057;-52
2023/09/22 01:52:41;;;;;;;0.85;0.60;;;15.40;99.90;;;15.56;100.00;99429.66;5228953;28;20591;-51
2023/09/22 01:55:13;;;;;;;2.15;0.63;;;15.30;99.90;;;15.55;100.00;99434.03;5237111;28;20041;-51
2023/09/22 01:57:49;;;;;;;0.60;0.60;;;15.30;99.90;;;15.54;100.00;99436.69;5221053;28;20384;-52
2023/09/22 02:00:21;;;;;;;1.55;0.70;;;15.30;99.90;;;15.53;100.00;99430.56;5233084;28;20047;-52
2023/09/22 02:02:55;;;;;;;1.25;0.70;;;15.40;99.90;;;15.52;100.00;99434.06;5222137;28;20049;-51
2023/09/22 02:05:27;;;;;;;1.05;0.55;;;15.30;99.90;;;15.50;100.00;99434.94;5237006;28;20060;-51
2023/09/22 02:08:01;;;;;;;1.38;0.98;;;15.30;99.90;;;15.46;100.00;99429.72;5238775;28;20064;-51
2023/09/22 02:10:34;;;;;;;1.08;0.70;;;15.30;99.90;;;15.42;100.00;99435.00;5233076;28;20053;-51
2023/09/22 02:13:09;;;;;;;0.50;0.50;;;15.20;99.90;;;15.34;100.00;99432.44;5234042;28;20052;-52
2023/09/22 02:15:41;;;;;;;0.60;0.60;;;15.10;99.90;;;15.28;100.00;99429.84;5233811;28;20044;-51
2023/09/22 02:18:14;;;;;;;0.40;0.40;;;15.10;99.90;;;15.21;100.00;99428.13;5234526;28;20099;-51
2023/09/22 02:20:46;;;;;;;2.30;0.70;;;15.00;99.90;;;15.15;100.00;99428.16;5233979;28;20053;-51
2023/09/22 02:23:20;;;;;;;1.08;0.70;;;15.00;99.90;;;15.10;100.00;99422.06;5237604;28;20044;-51
2023/09/22 02:25:52;;;;;;;0.75;0.52;;;14.90;99.90;;;15.06;100.00;99433.44;5220967;28;20516;-51
2023/09/22 02:28:25;;;;;;;1.42;0.60;;;14.90;99.90;;;15.04;100.00;99432.59;5233886;28;20545;-51
2023/09/22 02:30:57;;;;;;;1.17;0.55;;;14.90;99.90;;;15.02;100.00;99436.97;5222153;28;20049;-51
2023/09/22 02:33:30;;;;;;;1.02;0.60;;;14.80;99.90;;;15.00;100.00;99454.50;5233166;28;20045;-51
2023/09/22 02:36:07;;;;;;;0.68;0.63;;;14.80;99.90;;;14.99;100.00;99457.97;5217810;28;20049;-50
2023/09/22 02:38:41;;;;;;;0.75;0.68;;;14.80;99.90;;;14.99;100.00;99452.72;5234304;28;20049;-50
2023/09/22 02:41:14;;;;;;;0.60;0.47;;;14.80;99.90;;;14.98;100.00;99456.22;5234428;28;20049;-51
2023/09/22 02:43:47;;;;;;;1.33;1.00;;;14.80;99.90;;;14.96;100.00;99453.63;5233577;28;20033;-52
2023/09/22 02:46:20;;;;;;;0.80;0.70;;;14.80;99.90;;;14.93;100.00;99459.75;5234510;28;20076;-51
2023/09/22 02:48:52;;;;;;;1.10;0.65;;;14.70;99.90;;;14.91;100.00;99456.25;5221693;28;20048;-52
2023/09/22 02:51:24;;;;;;;0.95;0.70;;;14.80;99.90;;;14.91;100.00;99465.88;5234815;28;20053;-52
2023/09/22 02:53:58;;;;;;;1.10;1.00;;;14.70;99.90;;;14.90;100.00;99459.75;5220608;28;20063;-51
2023/09/22 02:56:32;;;;;;;1.17;0.70;;;14.70;99.90;;;14.88;100.00;99469.41;5234181;28;20052;-51
2023/09/22 02:59:05;;;;;;;1.77;0.80;;;14.70;99.90;;;14.88;100.00;99466.78;5227141;28;20062;-51
2023/09/22 03:01:37;;;;;;;1.15;0.90;;;14.70;99.90;;;14.85;100.00;99456.28;5218198;28;20538;-51
2023/09/22 03:04:10;;;;;;;1.25;0.82;;;14.70;99.90;;;14.84;100.00;99465.03;5234482;28;20060;-52
2023/09/22 03:06:42;;;;;;;1.98;0.80;;;14.70;99.90;;;14.80;100.00;99457.16;5233668;28;20132;-51
2023/09/22 03:09:16;;;;;;;0.80;0.63;;;14.60;99.90;;;14.78;100.00;99467.66;5234852;28;20486;-53
2023/09/22 03:11:52;;;;;;;1.92;0.90;;;14.60;99.90;;;14.76;100.00;99466.81;5236607;28;20341;-52
2023/09/22 03:14:24;;;;;;;0.90;0.73;;;14.60;99.90;;;14.75;100.00;99459.81;5237895;28;20052;-51
2023/09/22 03:16:58;;;;;;;1.08;0.77;;;14.60;99.90;;;14.74;100.00;99446.72;5239889;28;20053;-52
2023/09/22 03:19:31;;;;;;;1.20;0.68;;;14.60;99.90;;;14.74;100.00;99450.22;5238468;28;20052;-51
2023/09/22 03:22:03;;;;;;;2.08;0.90;;;14.60;99.90;;;14.75;100.00;99444.09;5214026;28;20052;-51
2023/09/22 03:24:38;;;;;;;1.45;0.68;;;14.60;99.90;;;14.75;100.00;99444.09;5223003;28;20485;-51
2023/09/22 03:27:11;;;;;;;0.77;0.70;;;14.60;99.90;;;14.76;100.00;99437.97;5241166;28;20428;-51
2023/09/22 03:29:47;;;;;;;0.80;0.60;;;14.60;99.90;;;14.75;100.00;99446.72;5239947;28;20055;-52
2023/09/22 03:32:21;;;;;;;1.85;0.70;;;14.60;99.90;;;14.75;100.00;99441.47;5238830;28;20540;-52
2023/09/22 03:34:54;;;;;;;0.77;0.63;;;14.60;99.90;;;14.73;100.00;99435.31;5238481;28;20045;-51
2023/09/22 03:37:29;;;;;;;0.80;0.60;;;14.60;99.90;;;14.74;100.00;99431.84;5241435;28;20048;-52
2023/09/22 03:40:09;;;;;;;3.80;1.00;;;14.60;99.90;;;14.77;100.00;99434.44;5224785;28;20041;-51
2023/09/22 03:42:43;;;;;;;;;;;14.60;99.90;;;14.76;100.00;99435.34;5238049;28;20049;-51
2023/09/22 03:45:15;;;;;;;2.05;0.80;;;14.60;99.90;;;14.73;100.00;99430.09;5224334;28;19921;-52
2023/09/22 03:47:48;;;;;;;1.75;0.75;;;14.60;99.90;;;14.74;100.00;99431.84;5222087;28;20056;-53
2023/09/22 03:50:20;;;;;;;0.88;0.73;;;14.60;99.90;;;14.74;100.00;99450.22;5239005;28;20057;-52
2023/09/22 03:52:53;;;;;;;2.05;1.10;;;14.60;99.90;;;14.76;100.00;99461.56;5237862;28;20535;-52
2023/09/22 03:55:27;;;;;;;1.35;0.75;;;14.60;99.90;;;14.78;100.00;99458.94;5238056;28;20389;-52
2023/09/22 03:57:59;;;;;;;1.15;0.93;;;14.60;99.90;;;14.79;100.00;99456.28;5240845;28;20049;-51
2023/09/22 04:00:32;;;;;;;1.40;0.93;;;14.70;99.90;;;14.81;100.00;99458.94;5238678;28;20044;-52
2023/09/22 04:03:07;;;;;;;1.60;1.00;;;14.70;99.90;;;14.82;100.00;99451.06;5229894;28;20095;-51
2023/09/22 04:05:41;;;;;;;1.35;0.77;;;14.70;99.90;;;14.85;100.00;99455.41;5231051;28;20057;-52
2023/09/22 04:08:13;;;;;;;1.20;0.73;;;14.70;99.90;;;14.86;100.00;99452.75;5238535;28;20056;-52
2023/09/22 04:10:47;;;;;;;1.48;0.82;;;14.70;99.90;;;14.87;100.00;99448.41;5233123;28;20059;-52
2023/09/22 04:13:19;;;;;;;1.85;1.00;;;14.70;99.90;;;14.88;100.00;99451.03;5238404;28;20132;-52
2023/09/22 04:15:59;;;;;;;1.95;0.98;;;14.80;99.90;;;14.88;100.00;99445.78;5237560;28;20049;-52
2023/09/22 04:18:31;;;;;;;2.10;0.90;;;14.70;99.90;;;14.91;100.00;99451.00;5238094;28;20133;-52
2023/09/22 04:21:07;;;;;;;1.63;1.00;;;14.70;99.90;;;14.90;100.00;99444.00;5229468;28;20065;-52
2023/09/22 04:23:45;;;;;;;1.50;0.80;;;14.80;99.90;;;14.90;100.00;99457.13;5237006;28;20512;-52
2023/09/22 04:26:27;;;;;;;2.97;1.20;;;14.80;99.90;;;14.92;100.00;99467.63;5238291;28;20160;-51
2023/09/22 04:29:00;;;;;;;1.30;0.77;;;14.80;99.90;;;14.93;100.00;99479.84;5240005;28;20060;-50
2023/09/22 04:31:32;;;;;;;1.98;1.00;;;14.80;99.90;;;14.93;100.00;99475.50;5239995;28;20063;-52
2023/09/22 04:34:08;;;;;;;1.60;0.73;;;14.80;99.90;;;14.95;100.00;99479.88;5212644;28;20124;-52
2023/09/22 04:36:40;;;;;;;1.45;0.80;;;14.80;99.90;;;14.93;100.00;99470.25;5223144;28;20053;-52
2023/09/22 04:39:14;;;;;;;1.02;0.93;;;14.80;99.90;;;14.94;100.00;99465.88;5238454;28;20086;-52
2023/09/22 04:41:48;;;;;;;2.22;1.00;;;14.80;99.90;;;14.93;100.00;99465.00;5237569;28;20049;-51
2023/09/22 04:44:20;;;;;;;2.85;0.90;;;14.80;99.90;;;14.95;100.00;99456.25;5237590;28;20040;-51
2023/09/22 04:46:52;;;;;;;2.08;1.00;;;14.80;99.90;;;14.96;100.00;99458.88;5237034;28;20128;-51
2023/09/22 04:49:25;;;;;;;2.55;1.02;;;14.80;99.90;;;14.98;100.00;99459.72;5238415;28;20068;-51
2023/09/22 04:51:57;;;;;;;3.00;1.00;;;14.80;99.90;;;14.96;100.00;99471.97;5222721;28;20523;-50
2023/09/22 04:54:31;;;;;;;2.40;0.73;;;14.80;99.90;;;14.97;100.00;99475.47;5236388;28;20041;-51
2023/09/22 04:57:05;;;;;;;2.53;1.15;;;14.80;99.90;;;14.95;100.00;99469.38;5212508;28;20558;-51
2023/09/22 04:59:37;;;;;;;2.90;1.15;;;14.80;99.90;;;14.97;100.00;99460.59;5220628;28;20045;-51
2023/09/22 05:02:11;;;;;;;2.47;1.05;;;14.80;99.90;;;14.95;100.00;99456.25;5237747;28;20048;-52
2023/09/22 05:04:44;;;;;;;3.08;0.93;;;14.80;99.90;;;14.95;100.00;99477.25;5236032;28;20033;-52
2023/09/22 05:07:17;;;;;;;2.08;0.95;;;14.80;99.90;;;14.93;100.00;99480.75;5237930;28;20138;-52
2023/09/22 05:09:53;;;;;;;2.10;1.05;;;14.80;99.90;;;14.93;100.00;99478.13;5231577;28;20045;-51
2023/09/22 05:12:26;;;;;;;1.60;0.93;;;14.80;99.90;;;14.95;100.00;99480.75;5238220;28;20045;-51
2023/09/22 05:15:00;;;;;;;1.98;0.82;;;14.80;99.90;;;14.95;100.00;99483.38;5222856;28;20045;-52
2023/09/22 05:17:34;;;;;;;2.05;1.00;;;14.80;99.90;;;14.91;100.00;99487.72;5237074;28;20459;-50
2023/09/22 05:20:12;;;;;;;1.92;0.82;;;14.80;99.90;;;14.90;100.00;99490.38;5211815;28;20073;-51
2023/09/22 05:22:44;;;;;;;2.10;1.02;;;14.80;99.90;;;14.84;100.00;99491.25;5221096;28;20036;-51
2023/09/22 05:25:17;;;;;;;4.07;1.10;;;14.80;99.90;;;14.79;100.00;99489.53;5238235;28;20045;-52
2023/09/22 05:27:50;;;;;;;1.00;0.90;;;14.70;99.90;;;14.74;100.00;99492.19;5236759;28;20076;-51
2023/09/22 05:30:23;;;;;;;1.77;0.57;;;14.70;99.90;;;14.75;100.00;99496.53;5236658;28;20405;-53
2023/09/22 05:32:55;;;;;;;1.35;0.77;;;14.70;99.90;;;14.76;100.00;99508.78;5235633;28;20041;-53
2023/09/22 05:35:28;;;;;;;2.13;0.70;;;14.70;99.90;;;14.74;100.00;99531.53;5235212;28;20147;-53
2023/09/22 05:38:01;;;;;;;1.55;0.90;;;14.70;99.90;;;14.74;100.00;99536.78;5236760;28;20041;-53
2023/09/22 05:40:35;;;;;;;2.88;0.88;;;14.70;99.90;;;14.76;100.00;99535.00;5221305;28;20086;-53
2023/09/22 05:43:10;;;;;;;2.28;1.08;;;14.70;99.90;;;14.79;100.00;99539.38;5222258;28;20045;-53
2023/09/22 05:45:42;;;;;;;1.52;1.00;;;14.70;99.90;;;14.80;100.00;99536.75;5221724;28;20052;-53
2023/09/22 05:48:18;;;;;;;1.80;1.02;;;14.70;99.90;;;14.83;100.00;99536.75;5221834;28;20052;-52
2023/09/22 05:50:57;;;;;;;2.20;1.00;;;14.70;99.90;;;14.86;100.00;99536.72;5220953;28;20467;-53
2023/09/22 05:53:30;;;;;;;2.10;0.77;;;14.70;99.90;;;14.87;100.00;99543.75;5221965;28;20091;-53
2023/09/22 05:56:07;;;;;;;1.42;0.90;;;14.70;99.90;;;14.90;100.00;99516.59;5236954;28;20041;-52
2023/09/22 05:58:41;;;;;;;1.13;0.70;;;14.70;99.90;;;14.91;100.00;99511.34;5220910;28;20044;-52
2023/09/22 06:01:15;;;;;;;0.70;0.63;;;14.80;99.90;;;14.91;100.00;99513.97;5222273;28;20049;-53
2023/09/22 06:03:47;;;;;;;2.33;0.77;;;14.80;99.90;;;14.92;100.00;99515.72;5221903;28;20037;-53
2023/09/22 06:06:20;;;;;;;1.98;1.13;;;14.80;99.90;;;14.95;100.00;99519.22;5222515;28;20148;-53
2023/09/22 06:08:53;;;;;;;1.05;0.88;;;14.80;99.90;;;14.98;100.00;99521.81;5220732;28;20052;-53
2023/09/22 06:11:26;;;;;;;1.73;0.80;;;14.80;99.90;;;15.13;100.00;99534.91;5222075;28;20049;-53
2023/09/22 06:14:03;;;;;;;1.23;0.80;;;15.00;99.90;;;15.25;100.00;99534.84;5237279;28;20044;-53
2023/09/22 06:16:35;;;;;;;1.33;0.98;;;15.10;99.90;;;15.28;100.00;99519.09;5221092;28;20531;-52
2023/09/22 06:19:10;;;;;;;2.03;1.00;;;15.10;99.90;;;15.27;100.00;99517.34;5215771;28;20059;-54
2023/09/22 06:21:43;;;;;;;1.48;0.93;;;15.10;99.90;;;15.25;100.00;99534.84;5221483;28;20055;-54
2023/09/22 06:24:17;;;;;;;2.28;1.15;;;15.10;99.90;;;15.20;100.00;99532.25;5221809;28;20037;-53
2023/09/22 06:26:49;;;;;;;2.03;0.93;;;15.10;99.90;;;15.20;100.00;99537.50;5221551;28;20064;-53
2023/09/22 06:29:23;;;;;;;1.20;1.10;;;15.10;99.90;;;15.17;100.00;99534.00;5222145;28;20508;-52
2023/09/22 06:31:55;;;;;;;1.27;0.63;;;15.10;99.90;;;15.17;100.00;99539.25;5220215;28;20071;-53
2023/09/22 06:34:28;;;;;;;3.28;1.05;;;15.10;99.90;;;15.16;100.00;99548.00;5220987;28;20052;-52
2023/09/22 06:37:00;;;;;;;1.45;0.82;;;15.10;99.90;;;15.17;100.00;99562.88;5236878;28;20049;-52
2023/09/22 06:39:32;;;;;;;1.75;0.85;;;15.10;99.90;;;15.19;100.00;99561.09;5221717;28;20051;-53
2023/09/22 06:42:08;;;;;;;1.42;1.02;;;15.10;99.90;;;15.23;100.00;99554.97;5238268;28;20061;-53
2023/09/22 06:44:42;;;;;;;1.88;1.10;;;15.10;99.90;;;15.57;100.00;99562.72;5220092;28;20075;-53
2023/09/22 06:47:15;;;;;;;2.28;0.90;;;15.40;99.90;;;15.84;100.00;99567.84;5225033;28;20053;-53
2023/09/22 06:49:48;;;;;;;2.13;1.00;;;15.60;99.90;;;16.09;100.00;99565.06;5225621;28;20412;-53
2023/09/22 06:52:22;;;;;;;1.92;0.90;;;15.90;99.90;;;16.39;100.00;99564.81;5226137;28;20045;-53
2023/09/22 06:54:55;;;;;;;2.45;0.90;;;16.10;99.90;;;16.59;100.00;99569.91;5223916;28;20099;-53
2023/09/22 06:57:27;;;;;;;2.38;1.05;;;16.40;99.90;;;16.80;100.00;99577.63;5225889;28;20140;-53
2023/09/22 07:00:14;;;;;;;1.55;0.90;;;16.50;99.90;;;16.93;100.00;99588.91;5226419;28;20044;-54
2023/09/22 07:02:48;;;;;;;3.85;1.10;;;16.70;99.90;;;16.93;100.00;99588.91;5225055;28;20041;-53
2023/09/22 07:05:20;;;;;;;1.55;0.90;;;16.70;99.90;;;16.88;100.00;99587.22;5225151;28;20037;-53
2023/09/22 07:07:53;;;;;;;1.52;0.70;;;16.70;99.90;;;16.75;100.00;99596.97;5225328;28;20411;-53
2023/09/22 07:10:28;;;;;;;1.30;0.80;;;16.60;99.90;;;16.65;100.00;99606.69;5226457;28;20132;-53
2023/09/22 07:13:02;;;;;;;1.77;1.15;;;16.60;99.90;;;16.59;100.00;99604.13;5225055;28;20504;-54
2023/09/22 07:15:35;;;;;;;2.22;0.73;;;16.50;99.90;;;16.53;100.00;99612.06;5225016;28;20044;-54
2023/09/22 07:18:11;;;;;;;1.52;0.90;;;16.40;99.90;;;16.49;100.00;99613.81;5227080;28;20098;-54
2023/09/22 07:20:46;;;;;;;3.00;0.90;;;16.40;99.90;;;16.46;100.00;99600.72;5225031;28;20044;-52
2023/09/22 07:23:19;;;;;;;3.28;0.80;;;16.30;99.90;;;16.42;100.00;99598.09;5225311;28;20057;-52
2023/09/22 07:26:09;;;;;;;1.67;0.85;;;16.30;99.90;;;16.43;100.00;99606.00;5224360;28;20110;-54
2023/09/22 07:28:42;;;;;;;1.60;0.90;;;16.30;99.90;;;16.45;100.00;99609.50;5240732;28;20044;-52
2023/09/22 07:31:18;;;;;;;1.45;1.00;;;16.30;99.90;;;16.50;100.00;99609.47;5225288;28;20056;-53
2023/09/22 07:33:50;;;;;;;1.25;0.70;;;16.30;99.90;;;16.54;100.00;99605.91;5224165;28;20041;-53
2023/09/22 07:36:22;;;;;;;1.77;0.80;;;16.30;99.90;;;16.55;100.00;99605.00;5225109;28;20110;-52
2023/09/22 07:38:55;;;;;;;3.42;0.90;;;16.40;99.90;;;16.58;100.00;99604.13;5239401;28;20060;-54
2023/09/22 07:41:27;;;;;;;1.23;0.80;;;16.40;99.90;;;16.64;100.00;99604.09;5221188;28;20451;-53
2023/09/22 07:44:00;;;;;;;1.85;0.95;;;16.40;99.90;;;16.74;100.00;99605.75;5239433;28;20049;-54
2023/09/22 07:46:33;;;;;;;1.95;0.77;;;16.50;99.90;;;16.84;100.00;99603.94;5225803;28;20053;-54
2023/09/22 07:49:06;;;;;;;1.27;0.73;;;16.60;99.90;;;16.99;100.00;99607.28;5240215;28;20051;-54
2023/09/22 07:51:39;;;;;;;1.35;0.70;;;16.70;99.90;;;17.09;100.00;99614.22;5224840;28;20416;-53
2023/09/22 07:54:11;;;;;;;1.02;0.68;;;16.80;99.90;;;17.16;100.00;99614.16;5226301;28;20094;-54
2023/09/22 07:56:46;;;;;;;0.98;0.80;;;16.80;99.90;;;17.21;100.00;99617.56;5225077;28;20041;-54
2023/09/22 07:59:18;;;;;;;2.28;1.25;;;16.80;99.90;;;17.35;100.00;99628.84;5224703;28;20475;-53
2023/09/22 08:01:52;;;;;;;2.05;0.73;;;17.00;99.90;;;17.52;100.00;99620.75;5222107;28;20081;-54
2023/09/22 08:04:25;;;;;;;1.45;0.80;;;17.10;99.90;;;17.67;100.00;99624.94;5223646;28;20045;-53
2023/09/22 08:06:59;;;;;;;6.32;1.08;;;17.20;99.90;;;17.88;100.00;99622.09;5221839;28;20132;-52
2023/09/22 08:09:31;;;;;;;4.47;1.10;;;17.40;99.90;;;18.49;100.00;99620.28;5224018;28;20044;-53
2023/09/22 08:12:05;;;;;;;8.50;1.13;;;17.70;99.90;;;19.19;100.00;99621.75;5221388;28;20049;-53
2023/09/22 08:14:37;;;;;;;5.47;1.50;;;18.20;99.90;;;19.81;100.00;99624.91;5222761;28;20523;-53
2023/09/22 08:17:11;;;;;;;2.17;0.90;;;18.60;99.90;;;20.02;100.00;99626.25;5227060;28;20423;-53
2023/09/22 08:19:43;;;;;;;2.67;0.70;;;18.90;99.90;;;20.31;100.00;99626.44;5223267;28;20045;-54
2023/09/22 08:22:19;;;;;;;4.35;1.38;;;19.00;99.90;;;21.07;99.18;99628.13;5223734;28;20056;-54
2023/09/22 08:24:51;;;;;;;2.75;0.52;;;19.50;99.90;;;21.47;97.32;99635.03;5223190;28;20107;-53
2023/09/22 08:27:23;;;;;;;1.83;0.70;;;19.80;99.90;;;21.85;95.42;99637.44;5224160;28;20068;-53
2023/09/22 08:29:56;;;;;;;3.22;0.70;;;20.20;99.90;;;22.10;93.28;99634.94;5238518;28;20041;-53
2023/09/22 08:32:30;;;;;;;5.57;0.82;;;20.50;99.90;;;22.80;90.05;99629.16;5223777;28;20044;-53
2023/09/22 08:35:03;;;;;;;1.00;0.60;;;21.00;99.90;;;23.81;85.50;99617.63;5222597;28;20044;-54
2023/09/22 08:37:40;;;;;;;1.85;0.77;;;21.70;99.90;;;24.75;83.33;99623.66;5222820;28;20123;-54
2023/09/22 08:40:18;;;;;;;1.05;0.50;;;22.50;99.10;;;25.51;79.19;99619.50;5227126;28;20037;-54
2023/09/22 08:42:52;;;;;;;2.50;0.52;;;23.30;97.20;;;26.01;76.16;99612.78;5222147;28;20053;-53
2023/09/22 08:45:25;;;;;;;2.15;0.52;;;23.90;95.30;;;26.42;74.00;99637.53;5223117;28;20045;-53
2023/09/22 08:47:59;;;;;;;2.78;0.60;;;24.30;93.70;;;26.46;72.79;99625.75;5222937;28;20041;-55
2023/09/22 08:50:32;;;;;;;2.25;0.45;;;24.60;92.60;;;26.36;73.09;99625.31;5222654;28;20104;-55
2023/09/22 08:53:05;;;;;;;1.55;0.65;;;24.70;92.00;;;26.19;73.70;99625.25;5219915;28;20057;-54
2023/09/22 08:55:38;;;;;;;2.40;0.50;;;24.70;91.60;;;26.13;73.08;99631.75;5222060;28;20045;-54
2023/09/22 08:58:10;;;;;;;1.00;0.47;;;24.80;91.00;;;25.86;73.23;99630.38;5227061;28;20036;-53
2023/09/22 09:00:42;;;;;;;1.48;0.50;;;24.80;90.50;;;25.56;74.23;99633.50;5223288;28;20041;-54
2023/09/22 09:03:20;;;;;;;1.20;0.60;;;24.60;90.50;;;25.20;74.30;99621.78;5226745;28;20053;-53
2023/09/22 09:06:05;;;;;;;3.50;0.50;;;24.40;90.10;;;24.68;74.48;99619.50;5221565;28;20073;-54
2023/09/22 09:08:38;;;;;;;2.72;0.43;;;24.10;89.40;;;24.33;75.70;99615.59;5222967;28;20079;-56
2023/09/22 09:11:11;;;;;;;1.98;0.50;;;23.70;90.20;;;24.07;76.89;99619.28;5226377;28;20148;-55
2023/09/22 09:13:44;;;;;;;0.70;0.50;;;23.50;90.50;;;23.97;77.58;99610.78;5221551;28;20064;-55
2023/09/22 09:16:31;;;;;;;1.33;0.52;;;23.40;90.90;;;24.03;78.05;99629.19;5226758;28;20040;-55
2023/09/22 09:19:17;;;;;;;1.52;0.57;;;23.30;91.10;;;24.02;78.42;99616.81;5220555;28;20508;-55
2023/09/22 09:22:05;;;;;;;1.27;0.52;;;23.30;91.30;;;23.78;78.64;99620.41;5222926;28;20056;-54
2023/09/22 09:24:43;;;;;;;0.60;0.43;;;23.20;91.50;;;23.39;78.69;99609.41;5234690;28;20076;-53
2023/09/22 09:27:18;;;;;;;1.98;0.57;;;22.90;91.30;;;23.12;79.81;99611.28;5227132;28;20049;-53
2023/09/22 09:29:53;;;;;;;1.02;0.40;;;22.60;91.40;;;22.90;80.57;99617.34;5221919;28;20137;-55
2023/09/22 09:32:26;;;;;;;1.40;0.60;;;22.40;91.80;;;22.67;80.84;99622.50;5217970;28;20544;-54
2023/09/22 09:35:00;;;;;;;1.98;0.43;;;22.10;91.70;;;22.34;81.54;99625.34;5220998;28;20073;-53
2023/09/22 09:37:32;;;;;;;1.02;0.40;;;21.80;92.00;;;22.03;82.03;99633.34;5222344;28;20076;-53
2023/09/22 09:40:10;;;;;;;1.63;0.45;;;21.60;92.10;;;21.74;83.22;99628.06;5234090;28;20049;-55
2023/09/22 09:42:47;;;;;;;1.23;0.57;;;21.30;92.60;;;21.48;83.93;99628.81;5222291;28;20476;-53
2023/09/22 09:45:23;;;;;;;1.88;0.40;;;21.10;92.90;;;21.21;84.44;99631.28;5238764;28;20459;-54
2023/09/22 09:48:00;;;;;;;2.50;0.60;;;20.80;93.20;;;20.95;85.75;99625.81;5221593;28;20049;-55
2023/09/22 09:50:35;;;;;;;2.00;0.80;;;20.60;93.60;;;20.70;86.59;99637.00;5221616;28;20045;-54
2023/09/22 09:53:26;;;;;;;1.58;0.43;;;20.40;93.90;;;20.51;87.86;99635.72;5236765;28;20071;-53
2023/09/22 09:56:03;;;;;;;1.13;0.57;;;20.20;94.60;;;20.36;89.17;99641.34;5221635;28;20416;-54
2023/09/22 09:58:36;;;;;;;1.30;0.40;;;20.00;95.10;;;20.24;90.63;99640.72;5222288;28;20049;-54
2023/09/22 10:01:09;;;;;;;1.55;0.60;;;19.90;95.90;;;20.13;90.79;99642.72;5227106;28;20516;-54
2023/09/22 10:03:43;;;;;;;0.68;0.47;;;19.80;95.80;;;20.02;90.83;99650.06;5221007;28;20098;-54
2023/09/22 10:06:19;;;;;;;0.47;0.40;;;19.70;95.90;;;19.90;90.87;99652.97;5227112;28;20397;-54
2023/09/22 10:08:51;;;;;;;0.70;0.40;;;19.60;96.00;;;19.84;91.33;99656.59;5221210;28;20045;-53
2023/09/22 10:11:24;;;;;;;1.00;0.52;;;19.50;96.20;;;19.83;91.67;99654.00;5220911;28;20045;-54
2023/09/22 10:13:56;;;;;;;2.03;0.40;;;19.40;96.40;;;19.86;91.51;99646.00;5219947;28;20063;-54
2023/09/22 10:16:32;;;;;;;0.88;0.50;;;19.50;96.50;;;19.84;90.10;99650.44;5222133;28;20472;-53
2023/09/22 10:19:04;;;;;;;2.25;0.50;;;19.40;96.10;;;19.82;88.44;99654.88;5233170;28;20405;-53
2023/09/22 10:21:45;;;;;;;0.45;0.43;;;19.40;95.50;;;19.76;89.43;99654.13;5224357;28;20049;-54
2023/09/22 10:24:26;;;;;;;1.27;0.75;;;19.30;95.70;;;19.76;89.91;99659.41;5224599;28;20071;-53
2023/09/22 10:27:14;;;;;;;1.25;0.40;;;19.30;95.90;;;19.71;89.95;99661.28;5224661;28;20069;-54
2023/09/22 10:29:52;;;;;;;0.63;0.63;;;19.30;96.00;;;19.84;90.14;99661.03;5226371;28;20075;-55
2023/09/22 10:32:28;;;;;;;1.33;0.43;;;19.40;96.10;;;20.34;91.07;99662.53;5241836;28;20056;-54
2023/09/22 10:35:05;;;;;;;0.40;0.30;;;19.70;96.80;;;20.80;89.66;99650.88;5223499;28;20431;-55
2023/09/22 10:37:58;;;;;;;1.33;0.70;;;20.10;96.60;;;21.08;87.86;99659.88;5225924;28;20575;-54
2023/09/22 10:40:33;;;;;;;0.88;0.63;;;20.40;95.70;;;21.33;86.78;99662.78;5238425;28;20069;-54
2023/09/22 10:43:06;;;;;;;0.77;0.50;;;20.60;95.30;;;21.56;83.59;99669.22;5238898;28;20443;-54